Nashville, TN (JWN)

Redbird FMX


Given the close proximity to downtown Nashville, Tennessee, John Tune (JWN) is a great place for the general aviation enthusiast or for someone learning how to fly. Wings of Eagles Aviation’s office is located in Hangar 1, and is accessible from the road or the ramp. The FBO is open 24 hours a day 7 days a week so there will always be someone available for help or fuel.

Address:
210 Tune Airport Dr.
Nashville, TN 37209

Phone: (615) 979-9222

Business Hours:
Monday-Sunday 7a-10p

Wings JWN

NOAA Weather

Nashville, TN

Last Updated on Feb 26 2017, 11:53 pm CST

Current Conditions: Overcast

NOAA Icon

Temp: 49°F

Wind: Variable at 5mph

Humidity: 44%

Windchill: 47°F

Your 5-Day Forecast at a Glance

Available data for KBNA from the past 2 hours
NASHVILLE, TN
Metar
KBNA 270553Z VRB05KT 10SM OVC090 09/M02 A3017 RMK AO2 SLP215 T00941022 10111 20083 401391028 55000

05:53 UTC

Wind: ° 5kt

Visibility: 10 SM

Sky: OVC 9000 ft

Temp: 9 deg C / 48.2 deg F

Dewpoint: -2 deg C / 28.4 deg F

Pressure: 30.17 inHg

TAF
KBNA 270526Z 2706/2806 VRB04KT P6SM OVC100 FM271100 15008KT 5SM -SHRA OVC050 FM271800 18011G17KT P6SM BKN060 FM280200 16007KT P6SM BKN050